createdAt,value
2023-08-26T00:01:33.742Z,10.60
2023-08-26T00:06:36.659Z,10.60
2023-08-26T00:11:39.618Z,10.30
2023-08-26T00:16:42.474Z,10.70
2023-08-26T00:21:45.334Z,17.70
2023-08-26T00:26:48.191Z,9.90
2023-08-26T00:31:51.017Z,13.10
2023-08-26T00:36:53.880Z,12.80
2023-08-26T00:41:56.734Z,11.10
2023-08-26T00:47:00.871Z,11.00
2023-08-26T00:52:04.161Z,12.10
2023-08-26T00:57:09.188Z,13.50
2023-08-26T01:02:12.058Z,12.00
2023-08-26T01:07:14.916Z,13.40
2023-08-26T01:12:35.010Z,12.80
2023-08-26T01:17:39.910Z,12.30
2023-08-26T01:22:44.430Z,12.70
2023-08-26T01:27:47.301Z,13.70
2023-08-26T01:33:02.636Z,11.50
2023-08-26T01:38:09.361Z,11.60
2023-08-26T01:43:13.132Z,13.20
2023-08-26T01:48:15.959Z,12.40
2023-08-26T01:53:18.863Z,12.40
2023-08-26T01:58:21.742Z,13.30
2023-08-26T02:03:24.684Z,12.90
2023-08-26T02:08:27.853Z,13.00
2023-08-26T02:13:31.092Z,12.80
2023-08-26T02:18:33.938Z,13.40
2023-08-26T02:23:36.795Z,12.20
2023-08-26T02:28:39.644Z,11.50
2023-08-26T02:33:42.515Z,11.30
2023-08-26T02:38:45.937Z,10.70
2023-08-26T02:43:48.768Z,11.20
2023-08-26T02:48:52.355Z,15.90
2023-08-26T02:53:55.167Z,13.50
2023-08-26T02:58:57.959Z,13.10
2023-08-26T03:04:00.775Z,14.40
2023-08-26T03:09:03.974Z,14.60
2023-08-26T03:14:06.781Z,14.30
2023-08-26T03:19:09.617Z,15.70
2023-08-26T03:24:18.336Z,14.40
2023-08-26T03:29:21.242Z,17.70
2023-08-26T03:34:24.013Z,14.60
2023-08-26T03:39:27.085Z,14.00
2023-08-26T03:44:29.995Z,17.70
2023-08-26T03:49:32.831Z,16.50
2023-08-26T03:54:37.728Z,20.00
2023-08-26T03:59:40.542Z,16.60
2023-08-26T04:04:43.491Z,19.40
2023-08-26T04:09:46.332Z,17.80
2023-08-26T04:14:49.147Z,17.50
2023-08-26T04:19:52.503Z,20.20
2023-08-26T04:24:56.741Z,16.20
2023-08-26T04:29:59.909Z,18.60
2023-08-26T04:35:02.743Z,17.30
2023-08-26T04:40:15.571Z,19.10
2023-08-26T04:45:18.773Z,18.70
2023-08-26T04:50:21.731Z,17.40
2023-08-26T04:55:24.621Z,17.90
2023-08-26T05:00:28.112Z,18.50
2023-08-26T05:05:30.952Z,15.60
2023-08-26T05:10:33.752Z,15.60
2023-08-26T05:15:36.762Z,15.10
2023-08-26T05:20:45.687Z,15.50
2023-08-26T05:25:48.614Z,15.30
2023-08-26T05:30:51.457Z,17.50
2023-08-26T05:35:56.678Z,15.00
2023-08-26T05:40:59.602Z,13.90
2023-08-26T05:46:02.516Z,14.10
2023-08-26T05:51:05.377Z,14.40
2023-08-26T05:56:08.268Z,11.60
2023-08-26T06:01:11.176Z,13.90
2023-08-26T06:06:14.033Z,11.80
2023-08-26T06:11:16.931Z,12.80
2023-08-26T06:16:23.000Z,10.90
2023-08-26T06:21:25.788Z,10.70
2023-08-26T06:26:28.606Z,8.70
2023-08-26T06:31:31.471Z,8.60
2023-08-26T06:36:34.436Z,9.70
2023-08-26T06:41:37.404Z,6.70
2023-08-26T06:46:41.632Z,7.40
2023-08-26T06:51:44.486Z,7.10
2023-08-26T06:56:47.290Z,7.30
2023-08-26T07:01:50.218Z,7.90
2023-08-26T07:11:57.329Z,8.20
2023-08-26T07:17:00.169Z,8.00
2023-08-26T07:22:03.301Z,8.10
2023-08-26T07:27:06.144Z,9.00
2023-08-26T07:32:09.028Z,8.50
2023-08-26T07:37:14.296Z,8.70
2023-08-26T07:42:18.125Z,7.40
2023-08-26T07:47:22.338Z,6.30
2023-08-26T07:52:25.957Z,5.20
2023-08-26T07:57:29.942Z,5.00
2023-08-26T08:02:32.829Z,6.50
2023-08-26T08:07:35.596Z,5.10
2023-08-26T08:12:38.701Z,5.80
2023-08-26T08:17:41.730Z,5.00
2023-08-26T08:22:44.771Z,7.70
2023-08-26T08:27:47.605Z,6.70
2023-08-26T08:32:50.516Z,6.40
2023-08-26T08:37:53.484Z,5.10
2023-08-26T08:42:59.975Z,7.30
2023-08-26T08:48:03.269Z,5.40
2023-08-26T08:53:07.071Z,5.80
2023-08-26T08:58:13.368Z,5.60
2023-08-26T09:03:17.710Z,5.10
2023-08-26T09:08:22.240Z,4.40
2023-08-26T09:13:25.078Z,4.30
2023-08-26T09:18:29.520Z,6.70
2023-08-26T09:23:42.363Z,5.50
2023-08-26T09:28:49.582Z,5.20
2023-08-26T09:34:01.737Z,4.90
2023-08-26T09:39:13.737Z,4.70
2023-08-26T09:44:18.230Z,4.10
2023-08-26T09:49:21.250Z,5.90
2023-08-26T09:54:24.420Z,5.20
2023-08-26T09:59:27.504Z,4.40
2023-08-26T10:04:34.261Z,8.00
2023-08-26T10:09:52.311Z,3.90
2023-08-26T10:14:57.548Z,8.20
2023-08-26T10:20:00.998Z,12.70
2023-08-26T10:25:07.142Z,5.80
2023-08-26T10:30:10.524Z,4.60
2023-08-26T10:35:14.945Z,5.10
2023-08-26T10:40:18.649Z,4.70
2023-08-26T10:45:25.487Z,4.30
2023-08-26T10:50:28.432Z,5.10
2023-08-26T10:55:34.566Z,4.90
2023-08-26T11:00:42.618Z,9.00
2023-08-26T11:05:46.960Z,4.80
2023-08-26T11:10:55.327Z,8.30
2023-08-26T11:15:59.976Z,7.70
2023-08-26T11:21:06.491Z,7.10
2023-08-26T11:26:09.482Z,6.40
2023-08-26T11:31:12.400Z,8.70
2023-08-26T11:36:15.288Z,7.70
2023-08-26T11:41:25.570Z,5.50
2023-08-26T11:46:28.513Z,5.80
2023-08-26T11:51:31.444Z,8.40
2023-08-26T11:56:35.174Z,5.40
2023-08-26T12:06:41.816Z,6.80
2023-08-26T12:11:44.627Z,7.10
2023-08-26T12:16:50.199Z,7.00
2023-08-26T12:21:53.170Z,7.10
2023-08-26T12:26:56.031Z,5.20
2023-08-26T12:31:58.912Z,6.20
2023-08-26T12:37:01.814Z,6.60
2023-08-26T12:42:04.778Z,6.70
2023-08-26T12:47:07.585Z,7.40
2023-08-26T12:52:10.751Z,5.80
2023-08-26T12:57:13.798Z,6.40
2023-08-26T13:02:16.721Z,8.60
2023-08-26T13:07:21.257Z,5.00
2023-08-26T13:12:24.173Z,5.80
2023-08-26T13:17:28.002Z,7.00
2023-08-26T13:22:30.858Z,25.40
2023-08-26T13:27:33.709Z,6.70
2023-08-26T13:32:36.544Z,6.70
2023-08-26T13:37:39.492Z,4.60
2023-08-26T13:42:43.098Z,4.40
2023-08-26T13:47:45.930Z,6.80
2023-08-26T13:52:51.078Z,9.20
2023-08-26T13:57:54.392Z,7.70
2023-08-26T14:02:57.273Z,8.20
2023-08-26T14:08:00.231Z,7.20
2023-08-26T14:13:03.601Z,6.40
2023-08-26T14:18:06.662Z,6.40
2023-08-26T14:23:09.529Z,5.10
2023-08-26T14:28:12.606Z,6.60
2023-08-26T14:33:15.502Z,10.80
2023-08-26T14:38:18.797Z,8.00
2023-08-26T14:43:22.126Z,8.40
2023-08-26T14:48:26.338Z,6.70
2023-08-26T14:53:29.280Z,5.40
2023-08-26T14:58:32.250Z,6.90
2023-08-26T15:03:35.262Z,6.40
2023-08-26T15:08:38.217Z,6.30
2023-08-26T15:13:41.011Z,7.00
2023-08-26T15:18:43.902Z,6.10
2023-08-26T15:23:51.671Z,6.10
2023-08-26T15:28:54.888Z,6.10
2023-08-26T15:33:57.804Z,8.40
2023-08-26T15:39:00.829Z,10.90
2023-08-26T15:44:04.004Z,6.70
2023-08-26T15:49:08.161Z,8.30
2023-08-26T15:54:11.277Z,7.00
2023-08-26T15:59:14.063Z,7.50
2023-08-26T16:04:18.892Z,7.70
2023-08-26T16:09:21.885Z,8.20
2023-08-26T16:14:25.212Z,9.10
2023-08-26T16:19:28.021Z,8.60
2023-08-26T16:24:30.909Z,6.40
2023-08-26T16:29:33.807Z,7.30
2023-08-26T16:34:38.792Z,6.90
2023-08-26T16:39:44.186Z,8.10
2023-08-26T16:49:50.664Z,8.20
2023-08-26T16:54:53.621Z,8.10
2023-08-26T16:59:56.456Z,9.90
2023-08-26T17:04:59.313Z,8.00
2023-08-26T17:10:02.337Z,8.60
2023-08-26T17:15:06.616Z,8.50
2023-08-26T17:20:10.068Z,7.50
2023-08-26T17:25:12.923Z,6.70
2023-08-26T17:30:16.023Z,5.90
2023-08-26T17:35:19.803Z,8.50
2023-08-26T17:40:29.359Z,7.70
2023-08-26T17:45:32.261Z,8.40
2023-08-26T17:50:35.118Z,10.30
2023-08-26T17:55:42.984Z,11.00
2023-08-26T18:00:46.020Z,10.10
2023-08-26T18:05:55.189Z,9.90
2023-08-26T18:10:59.059Z,9.80
2023-08-26T18:16:05.686Z,8.70
2023-08-26T18:21:10.082Z,11.70
2023-08-26T18:26:12.930Z,11.20
2023-08-26T18:31:15.846Z,9.70
2023-08-26T18:36:18.748Z,13.70
2023-08-26T18:41:21.612Z,12.50
2023-08-26T18:46:24.529Z,12.90
2023-08-26T18:51:27.606Z,15.90
2023-08-26T18:56:30.508Z,15.40
2023-08-26T19:01:33.763Z,13.40
2023-08-26T19:06:37.015Z,12.00
2023-08-26T19:11:40.711Z,11.70
2023-08-26T19:16:43.563Z,10.20
2023-08-26T19:21:46.426Z,12.70
2023-08-26T19:26:53.900Z,13.00
2023-08-26T19:31:56.734Z,12.40
2023-08-26T19:36:59.567Z,12.00
2023-08-26T19:42:02.668Z,10.30
2023-08-26T19:47:05.592Z,10.60
2023-08-26T19:52:08.406Z,14.10
2023-08-26T19:57:22.080Z,11.00
2023-08-26T20:02:25.192Z,12.80
2023-08-26T20:07:28.188Z,13.90
2023-08-26T20:12:31.629Z,12.00
2023-08-26T20:17:35.004Z,10.60
2023-08-26T20:22:38.742Z,12.20
2023-08-26T20:27:41.643Z,11.20
2023-08-26T20:32:44.563Z,11.80
2023-08-26T20:37:48.425Z,12.10
2023-08-26T20:42:51.519Z,10.80
2023-08-26T20:47:56.809Z,12.40
2023-08-26T20:53:00.006Z,11.10
2023-08-26T20:58:05.724Z,10.80
2023-08-26T21:03:10.822Z,10.90
2023-08-26T21:08:14.536Z,11.10
2023-08-26T21:13:17.583Z,11.70
2023-08-26T21:18:20.827Z,10.80
2023-08-26T21:23:23.680Z,12.20
2023-08-26T21:28:27.873Z,12.40
2023-08-26T21:33:30.719Z,10.40
2023-08-26T21:38:33.547Z,9.80
2023-08-26T21:43:36.366Z,9.60
2023-08-26T21:48:39.394Z,9.60
2023-08-26T21:53:42.385Z,10.60
2023-08-26T21:58:45.437Z,10.60
2023-08-26T22:03:48.285Z,11.50
2023-08-26T22:08:51.122Z,9.70
2023-08-26T22:13:54.470Z,10.10
2023-08-26T22:18:57.522Z,11.50
2023-08-26T22:24:00.346Z,8.90
2023-08-26T22:29:03.682Z,10.20
2023-08-26T22:34:06.530Z,9.60
2023-08-26T22:39:19.437Z,9.90
2023-08-26T22:44:23.500Z,10.60
2023-08-26T22:49:26.703Z,11.00
2023-08-26T22:54:29.725Z,9.20
2023-08-26T22:59:32.534Z,10.90
2023-08-26T23:04:37.799Z,9.60
2023-08-26T23:09:40.631Z,11.20
2023-08-26T23:14:43.464Z,9.70
2023-08-26T23:19:46.956Z,11.10
2023-08-26T23:24:49.771Z,11.00
2023-08-26T23:29:52.798Z,9.80
2023-08-26T23:34:56.639Z,11.10
2023-08-26T23:39:59.462Z,9.10
2023-08-26T23:45:02.335Z,13.00
2023-08-26T23:50:07.779Z,8.90
2023-08-26T23:55:11.013Z,10.10
